Home > Products > Valid Products > TAF

000
FTUS43 KDTX 301100
TAFDTW
TAF
KDTW 301137Z 3012/3118 28005KT P6SM SCT030 BKN120 BKN250
     FM301600 32007KT P6SM BKN050 OVC100
      TEMPO 3019/3023 5SM -SHRA OVC050
     FM302300 27005KT P6SM FEW050 SCT100
     FM311000 24005KT P6SM BKN100=



000
FTUS43 KDTX 301100
TAFDET
TAF
KDET 301137Z 3012/3112 28005KT P6SM SCT030 BKN120 BKN250
     FM301600 32007KT P6SM BKN050 OVC100
      TEMPO 3019/3023 5SM -SHRA OVC050
     FM302300 27005KT P6SM FEW050 SCT100
     FM311000 24005KT P6SM BKN100=



000
FTUS43 KDTX 301100
TAFMBS
TAF
KMBS 301137Z 3012/3112 28005KT P6SM SCT030 SCT100
     FM301600 32007KT P6SM SCT050 BKN250
     FM302300 04007KT P6SM FEW050 SCT100
     FM310700 27005KT P6SM BKN100=



000
FTUS43 KDTX 301100
TAFFNT
TAF
KFNT 301137Z 3012/3112 27005KT P6SM SCT030 BKN100
     FM301600 32007KT P6SM SCT050 BKN250
     FM302300 27005KT P6SM FEW050 SCT250
     FM310800 24005KT P6SM BKN100=



000
FTUS43 KDTX 300900 AAA
TAFDTW
TAF AMD
KDTW 300909Z 3009/3112 27005KT P6SM SCT120 BKN200
      TEMPO 3010/3012 5SM BR SCT200
     FM301700 27010KT P6SM BKN050 PROB30 3020/3024 5SM -SHRA BKN035
     FM310000 29006KT P6SM BKN070=



000
FTUS43 KDTX 300500
TAFDET
TAF
KDET 300527Z 3006/3106 27005KT P6SM SCT060 BKN200
     FM301200 27006KT P6SM SCT030
     FM301700 27010KT P6SM BKN050 PROB30 3020/3024 5SM -SHRA BKN035
     FM310000 29006KT P6SM BKN070=



000
FTUS43 KDTX 300500
TAFMBS
TAF
KMBS 300527Z 3006/3106 28005KT P6SM SCT040 SCT080
     FM300800 28004KT 4SM BR FEW120
     FM301200 27006KT P6SM SCT030
     FM301700 27010KT P6SM BKN050
     FM302300 29006KT P6SM BKN070=



000
FTUS43 KDTX 300500
TAFFNT
TAF
KFNT 300527Z 3006/3106 27003KT 4SM BR SCT040 SCT100
      TEMPO 3006/3010 P6SM NSW BKN040
     FM301200 27006KT P6SM SCT030
     FM301700 27010KT P6SM BKN050
     FM302300 25006KT P6SM BKN070=



000
FTUS43 KDTX 300500
TAFDTW
TAF
KDTW 300527Z 3006/3112 27005KT P6SM SCT060 BKN200
     FM301200 27006KT P6SM SCT030
     FM301700 27010KT P6SM BKN050 PROB30 3020/3024 5SM -SHRA BKN035
     FM310000 29006KT P6SM BKN070=



000
FTUS43 KDTX 300200 AAA
TAFDTW
TAF AMD
KDTW 300227Z 3002/3106 24012KT P6SM SCT045 BKN070
      TEMPO 3002/3004 6SM -SHRA BKN040 OVC060
     FM300400 28005KT P6SM SCT060 SCT080 BKN200
     FM301500 26008KT P6SM BKN050 BKN150=



000
FTUS43 KDTX 292300
TAFFNT
TAF
KFNT 292331Z 3000/3024 29010KT P6SM BKN045 BKN080
      TEMPO 3000/3002 4SM -SHRA BKN030 BKN060
     FM300200 29005KT P6SM SCT060 SCT080 BKN200
     FM301500 27008KT P6SM BKN050=



000
FTUS43 KDTX 292300
TAFDET
TAF
KDET 292331Z 3000/3024 24012KT P6SM SCT045 BKN060
      TEMPO 3000/3002 6SM -SHRA BKN040 OVC060
     FM300200 28005KT P6SM SCT060 SCT080 BKN200
     FM301500 26008KT P6SM BKN050 BKN150=



000
FTUS43 KDTX 292300
TAFMBS
TAF
KMBS 292331Z 3000/3024 29008KT P6SM BKN045 BKN080
     FM300200 29005KT P6SM SCT060 SCT080
     FM300800 28004KT 4SM BR FEW150
     FM301200 27005KT P6SM SCT030
     FM301700 27008KT P6SM BKN050=



000
FTUS43 KDTX 292300
TAFDTW
TAF
KDTW 292331Z 3000/3106 24012KT P6SM SCT045 BKN070
      TEMPO 3000/3002 6SM -SHRA BKN040 OVC060
     FM300200 28005KT P6SM SCT060 SCT080 BKN200
     FM301500 26008KT P6SM BKN050 BKN150=



000
FTUS43 KDTX 292100 AAA
TAFFNT
TAF AMD
KFNT 292149Z 2922/3018 27010KT P6SM BKN045 BKN080
      TEMPO 2922/2924 34012G20KT 2SM -TSRA BKN030CB BKN060
     FM300100 29005KT P6SM SCT060 SCT080 BKN200
     FM301500 27008KT P6SM BKN050=



000
FTUS43 KDTX 292100 AAB
TAFDET
TAF AMD
KDET 292143Z 2922/3018 24012KT P6SM SCT045 BKN060
      TEMPO 2922/2924 33014G25KT 2SM -TSRA BKN030CB OVC060
     FM300100 28005KT P6SM SCT060 SCT080 BKN200
     FM301500 26008KT P6SM BKN050 BKN150=



000
FTUS43 KDTX 292000 AAA
TAFDET
TAF AMD
KDET 292011Z 2920/3018 24012KT P6SM SCT045 BKN070
      TEMPO 2921/2924 6SM -SHRA BKN040 OVC060
     FM300100 28005KT P6SM SCT060 SCT080 BKN200
     FM301500 26008KT P6SM BKN050 BKN150=



000
FTUS43 KDTX 292000 AAA
TAFDTW
TAF AMD
KDTW 292010Z 2920/3024 24012KT P6SM SCT045 BKN070
      TEMPO 2921/2924 6SM -SHRA BKN040 OVC060
     FM300100 28005KT P6SM SCT060 SCT080 BKN200
     FM301500 26008KT P6SM BKN050 BKN150=



000
FTUS43 KDTX 291700
TAFFNT
TAF
KFNT 291728Z 2918/3018 27010KT P6SM BKN045 BKN080
      TEMPO 2918/2922 6SM -SHRA BKN030 BKN080
     FM300100 29005KT P6SM SCT060 SCT080 BKN200
     FM301500 27008KT P6SM BKN050=



000
FTUS43 KDTX 291700
TAFMBS
TAF
KMBS 291728Z 2918/3018 28010KT P6SM BKN045 BKN080
      TEMPO 2918/2920 6SM -SHRA BKN030 BKN080
     FM300100 29005KT P6SM SCT060 SCT080 BKN200
     FM301500 27008KT P6SM BKN050=



000
FTUS43 KDTX 291700
TAFDTW
TAF
KDTW 291728Z 2918/3024 25009KT P6SM SCT045 BKN070
     FM292000 27010KT P6SM BKN045 BKN080
      TEMPO 2920/2924 6SM -SHRA BKN035 OVC060
     FM300100 28005KT P6SM SCT060 SCT080 BKN200
     FM301500 26008KT P6SM BKN050 BKN150=



000
FTUS43 KDTX 291700
TAFDET
TAF
KDET 291728Z 2918/3018 25009KT P6SM SCT045 BKN070
     FM292000 27010KT P6SM BKN045 BKN080
      TEMPO 2920/2924 6SM -SHRA BKN035 OVC060
     FM300100 28005KT P6SM SCT060 SCT080 BKN200
     FM301500 26008KT P6SM BKN050 BKN150=



000
FTUS43 KDTX 291400 AAA
TAFDET
TAF AMD
KDET 291408Z 2914/3012 27006KT P6SM SCT080
     FM291600 27012KT P6SM SCT035 OVC060
      TEMPO 2920/2923 4SM -SHRA OVC035
     FM300000 30007KT P6SM SCT080 BKN200
     FM300700 24005KT P6SM -SHRA OVC060=



000
FTUS43 KDTX 291400 AAA
TAFDTW
TAF AMD
KDTW 291407Z 2914/3018 27006KT P6SM SCT080
     FM291600 27012KT P6SM SCT035 OVC060
      TEMPO 2920/2923 4SM -SHRA OVC035
     FM300000 30007KT P6SM SCT080 BKN200
     FM300700 24005KT P6SM -SHRA OVC060
     FM301400 24010KT P6SM SCT060 BKN150=



000
FTUS43 KDTX 291100
TAFDTW
TAF
KDTW 291127Z 2912/3018 27005KT P6SM SKC
     FM291600 27012KT P6SM -SHRA SCT035 OVC060
      TEMPO 2920/2923 4SM -SHRA OVC035
     FM300000 30007KT P6SM SCT080 BKN200
     FM300700 24005KT P6SM -SHRA OVC060
     FM301400 24010KT P6SM SCT060 BKN150=



000
FTUS43 KDTX 291100
TAFMBS
TAF
KMBS 291127Z 2912/3012 27012KT P6SM -SHRA SCT035 OVC060
      TEMPO 2919/2922 4SM -SHRA OVC035
     FM292300 30007KT P6SM SCT080 BKN200
     FM300700 24005KT P6SM BKN120=



000
FTUS43 KDTX 291100
TAFFNT
TAF
KFNT 291127Z 2912/3012 25005KT P6SM SCT060
     FM291400 27012KT P6SM -SHRA SCT035 OVC060
      TEMPO 2919/2922 4SM -SHRA OVC035
     FM292300 30007KT P6SM SCT080 BKN200
     FM300700 24005KT P6SM OVC080=



000
FTUS43 KDTX 291100
TAFDET
TAF
KDET 291127Z 2912/3012 28005KT P6SM SKC
     FM291600 28012KT P6SM -SHRA SCT035 OVC060
      TEMPO 2920/2923 4SM -SHRA OVC035
     FM300000 30007KT P6SM SCT080 BKN200
     FM300700 24005KT P6SM -SHRA OVC060=



000
FTUS43 KDTX 290900 AAA
TAFDTW
TAF AMD
KDTW 290908Z 2909/3012 28005KT P6SM SCT050
     FM291500 28010KT P6SM SCT050 BKN100
     FM291800 28012G16KT P6SM SCT035 BKN045 PROB30 2919/2922 5SM
      -SHRA BKN035
     FM300000 27009KT P6SM SCT040 BKN080
     FM300200 26004KT P6SM SCT080 BKN120=



000
FTUS43 KDTX 290500
TAFDTW
TAF
KDTW 290530Z 2906/3012 28005KT P6SM SCT050
     FM291500 28010KT P6SM BKN050 BKN120
     FM291800 28012G16KT P6SM SCT035 BKN045 PROB30 2919/2922 5SM
      -SHRA BKN035
     FM300000 27009KT P6SM SCT040 BKN080
     FM300200 26004KT P6SM SCT080 BKN120=



000
FTUS43 KDTX 290500
TAFMBS
TAF
KMBS 290530Z 2906/3006 25005KT P6SM SCT050
     FM291200 27010KT P6SM BKN050 BKN120
     FM291800 28012G16KT P6SM SCT035 BKN045 PROB30 2918/2921 5SM
      -SHRA BKN035
     FM292200 28009KT P6SM SCT040 BKN080
     FM300200 26004KT P6SM SCT080 BKN120=



000
FTUS43 KDTX 290500
TAFDET
TAF
KDET 290530Z 2906/3006 30005KT P6SM SCT050
     FM291500 28010KT P6SM BKN050 BKN120
     FM291800 28012G16KT P6SM SCT035 BKN045 PROB30 2919/2922 5SM
      -SHRA BKN040
     FM300000 27009KT P6SM SCT040 BKN080
     FM300200 26004KT P6SM SCT080 BKN120=



000
FTUS43 KDTX 290500
TAFFNT
TAF
KFNT 290530Z 2906/3006 27005KT P6SM SCT050
     FM291300 25010KT P6SM BKN050 BKN120
     FM291800 28012G16KT P6SM SCT035 BKN045 PROB30 2919/2922 5SM
      -SHRA BKN035
     FM292300 28009KT P6SM SCT040 BKN080
     FM300200 26004KT P6SM SCT080 BKN120=



000
FTUS43 KDTX 290300 AAA
TAFDTW
TAF AMD
KDTW 290306Z 2903/3006 33005KT P6SM SCT050
     FM290900 29004KT P6SM FEW060 BKN150
     FM291500 28010KT P6SM BKN060 BKN120
     FM291800 28012G16KT P6SM SCT035 BKN045 PROB30 2919/2922 5SM
      -SHRA BKN035
     FM300000 27009KT P6SM SCT040 BKN080=



000
FTUS43 KDTX 282300
TAFMBS
TAF
KMBS 282320Z 2900/2924 36007KT P6SM SCT035 BKN050
     FM290100 33005KT P6SM SCT070
     FM290500 29004KT P6SM FEW070 BKN150
     FM291400 28010KT P6SM BKN060 BKN120
     FM291700 28012G16KT P6SM SCT035 BKN045 PROB30 2917/2920 5SM
      -SHRA BKN035=



000
FTUS43 KDTX 282300
TAFFNT
TAF
KFNT 282320Z 2900/2924 35007KT P6SM SCT035 BKN060
     FM290100 32005KT P6SM SCT070
     FM290500 29004KT P6SM FEW070 BKN150
     FM291400 28010KT P6SM BKN060 BKN120
     FM291700 28012G16KT P6SM SCT035 BKN045 PROB30 2917/2920 5SM
      -SHRA BKN035=



000
FTUS43 KDTX 282300
TAFDTW
TAF
KDTW 282320Z 2900/3006 33007KT P6SM SCT040 BKN070
     FM290200 30005KT P6SM SCT070
     FM290600 29004KT P6SM FEW070 BKN150
     FM291400 28010KT P6SM BKN060 BKN120
     FM291800 28012G16KT P6SM SCT035 BKN045 PROB30 2918/2921 5SM
      -SHRA BKN035
     FM300000 27009KT P6SM SCT040 BKN080=



000
FTUS43 KDTX 282300
TAFDET
TAF
KDET 282320Z 2900/2924 35008KT P6SM SCT040 BKN070
     FM290200 31005KT P6SM SCT070
     FM290700 29004KT P6SM FEW070 BKN150
     FM291400 28010KT P6SM BKN060 BKN120
     FM291800 28012G16KT P6SM SCT035 BKN045 PROB30 2918/2921 5SM
      -SHRA BKN035=



000
FTUS43 KDTX 282100 AAA
TAFDTW
TAF AMD
KDTW 282111Z 2821/2924 33010KT P6SM SCT035 OVC060
     FM282300 34008KT P6SM SCT050
     FM290600 29004KT P6SM SCT050 BKN120 OVC250
     FM291400 28010KT P6SM BKN060 BKN120 OVC250
     FM291800 28012G16KT P6SM VCSH BKN040=



000
FTUS43 KDTX 281900 AAA
TAFDTW
TAF AMD
KDTW 281934Z 2820/2924 36012KT P6SM SCT035 OVC060
     FM282300 34008KT P6SM SCT050
     FM290600 29004KT P6SM SCT050 BKN120 OVC250
     FM291400 28010KT P6SM BKN060 BKN120 OVC250
     FM291800 28012G16KT P6SM VCSH BKN040=



000
FTUS43 KDTX 281900 AAA
TAFDET
TAF AMD
KDET 281934Z 2820/2918 36012KT P6SM SCT035 OVC060
     FM282200 33010KT P6SM SCT050
     FM290600 30004KT P6SM SCT050 BKN120 OVC250
     FM291400 28010KT P6SM BKN060 BKN120 OVC250=



000
FTUS43 KDTX 281900 AAA
TAFMBS
TAF AMD
KMBS 281934Z 2820/2918 34012KT P6SM BKN050
     FM282200 33010KT P6SM SCT050
     FM290400 29005KT P6SM SCT050 BKN120 OVC250
     FM291500 28010KT P6SM VCSH BKN050=



000
FTUS43 KDTX 281700
TAFMBS
TAF
KMBS 281731Z 2818/2918 34012KT P6SM BKN040
     FM282200 33010KT P6SM SCT050
     FM290400 29005KT P6SM SCT050 BKN120 OVC250
     FM291500 28010KT P6SM VCSH BKN050=



000
FTUS43 KDTX 281700
TAFDET
TAF
KDET 281731Z 2818/2918 35011G18KT P6SM BKN045
     FM282200 33010KT P6SM SCT050
     FM290600 30004KT P6SM SCT050 BKN120 OVC250
     FM291400 28010KT P6SM BKN060 BKN120 OVC250=



000
FTUS43 KDTX 281700
TAFFNT
TAF
KFNT 281731Z 2818/2918 36012KT P6SM SCT025 BKN040
     FM282200 34010KT P6SM SCT050
     FM290400 27006KT P6SM SCT050 BKN120 OVC250
     FM291500 28012KT P6SM BKN050=



000
FTUS43 KDTX 281700
TAFDTW
TAF
KDTW 281731Z 2818/2924 33012KT P6SM SCT035 BKN045
     FM282300 33008KT P6SM SCT050
     FM290600 29004KT P6SM SCT050 BKN120 OVC250
     FM291400 28010KT P6SM BKN060 BKN120 OVC250
     FM291800 28012G16KT P6SM VCSH BKN040=



000
FTUS43 KDTX 281700 AAD
TAFFNT
TAF AMD
KFNT 281705Z 2817/2912 36013G20KT P6SM SCT025 BKN045
     FM282200 33010KT P6SM SCT050
     FM290400 27008KT P6SM SCT050 BKN120 OVC250=



000
FTUS43 KDTX 281600 AAB
TAFDET
TAF AMD
KDET 281636Z 2817/2912 36013G20KT P6SM SCT025 BKN040
     FM281800 33013G20KT P6SM BKN045
     FM282200 33010KT P6SM SCT050
     FM290600 27006KT P6SM SCT050 BKN120 OVC250=



000
FTUS43 KDTX 281600 AAD
TAFDTW
TAF AMD
KDTW 281636Z 2817/2918 32013G20KT P6SM SCT025 BKN035
     FM282300 31008KT P6SM SCT050
     FM290600 29004KT P6SM SCT050 BKN120 OVC250
     FM291400 28010KT P6SM BKN060 BKN120 OVC250=



000
FTUS43 KDTX 281600 AAC
TAFFNT
TAF AMD
KFNT 281607Z 2816/2912 35013G20KT P6SM SCT025 BKN045
      TEMPO 2816/2818 BKN025
     FM282200 33010KT P6SM SCT050
     FM290400 27008KT P6SM SCT050 BKN120 OVC250=



000
FTUS43 KDTX 281500 AAB
TAFMBS
TAF AMD
KMBS 281531Z 2816/2912 35013KT P6SM BKN035
     FM281700 33013G20KT P6SM BKN045
     FM282200 33010KT P6SM SCT050
     FM290400 27008KT P6SM SCT050 BKN120 OVC250=



000
FTUS43 KDTX 281500 AAB
TAFFNT
TAF AMD
KFNT 281518Z 2815/2912 34012G20KT P6SM BKN025 OVC060
     FM281600 33013G20KT P6SM BKN045
     FM282200 33010KT P6SM SCT050
     FM290400 27008KT P6SM SCT050 BKN120 OVC250=



000
FTUS43 KDTX 281500 AAC
TAFDTW
TAF AMD
KDTW 281515Z 2815/2918 34012G18KT P6SM SCT025 BKN035
     FM281800 34013G20KT P6SM BKN045
     FM282200 33010KT P6SM SCT050
     FM290600 27006KT P6SM SCT050 BKN120 OVC250
     FM291400 24006KT P6SM SCT120 BKN250=



000
FTUS43 KDTX 281400 AAB
TAFDTW
TAF AMD
KDTW 281453Z 2815/2918 35012KT P6SM BKN025 OVC040
     FM281600 34013G20KT P6SM SCT025 BKN040
     FM281800 34013G20KT P6SM BKN045
     FM282200 33010KT P6SM SCT050
     FM290600 27006KT P6SM SCT050 BKN120 OVC250
     FM291400 24006KT P6SM SCT120 BKN250=



000
FTUS43 KDTX 281400 AAA
TAFFNT
TAF AMD
KFNT 281404Z 2814/2912 01013G20KT P6SM BKN025 OVC060
     FM281700 33013G20KT P6SM BKN045
     FM282200 33010KT P6SM SCT050
     FM290400 27008KT P6SM SCT050 BKN120 OVC250=



000
FTUS43 KDTX 281400 AAA
TAFDTW
TAF AMD
KDTW 281404Z 2814/2918 34012G20KT P6SM BKN025 OVC040
     FM281700 36013G20KT P6SM SCT025 BKN040
     FM281800 33013G20KT P6SM BKN045
     FM282200 33010KT P6SM SCT050
     FM290600 27006KT P6SM SCT050 BKN120 OVC250
     FM291400 24006KT P6SM SCT120 BKN250=



000
FTUS43 KDTX 281400 AAA
TAFDET
TAF AMD
KDET 281404Z 2814/2912 36013G20KT P6SM BKN025 OVC040
     FM281700 36013G20KT P6SM SCT025 BKN040
     FM281800 33013G20KT P6SM BKN045
     FM282200 33010KT P6SM SCT050
     FM290600 27006KT P6SM SCT050 BKN120 OVC250=



000
FTUS43 KDTX 281400 AAA
TAFMBS
TAF AMD
KMBS 281404Z 2814/2912 36013G20KT P6SM BKN025 OVC060
     FM281700 33013G20KT P6SM BKN045
     FM282200 33010KT P6SM SCT050
     FM290400 27008KT P6SM SCT050 BKN120 OVC250=



000
FTUS43 KDTX 281100
TAFFNT
TAF
KFNT 281137Z 2812/2912 36013G20KT P6SM BKN025 OVC060
     FM281400 36013G20KT P6SM SCT025 BKN040
     FM281700 33013G20KT P6SM BKN045
     FM282200 33010KT P6SM SCT050
     FM290400 27008KT P6SM SCT050 BKN120 OVC250=



000
FTUS43 KDTX 281100
TAFDET
TAF
KDET 281137Z 2812/2912 36013G20KT P6SM BKN025 OVC040
     FM281500 36013G20KT P6SM SCT025 BKN040
     FM281800 33013G20KT P6SM BKN045
     FM282200 33010KT P6SM SCT050
     FM290600 27006KT P6SM SCT050 BKN120 OVC250=



000
FTUS43 KDTX 281100
TAFMBS
TAF
KMBS 281137Z 2812/2912 36013G20KT P6SM BKN025 OVC060
     FM281400 36013G20KT P6SM SCT025 BKN040
     FM281700 33013G20KT P6SM BKN045
     FM282200 33010KT P6SM SCT050
     FM290400 27008KT P6SM SCT050 BKN120 OVC250=



000
FTUS43 KDTX 281100
TAFDTW
TAF
KDTW 281137Z 2812/2918 36013G20KT P6SM BKN025 OVC040
     FM281500 36013G20KT P6SM SCT025 BKN040
     FM281800 33013G20KT P6SM BKN045
     FM282200 33010KT P6SM SCT050
     FM290600 27006KT P6SM SCT050 BKN120 OVC250
     FM291400 24006KT P6SM SCT120 BKN250=



000
FTUS43 KDTX 280900 AAA
TAFDET
TAF AMD
KDET 280915Z 2809/2906 34010KT P6SM BKN015 OVC045
      TEMPO 2809/2813 SCT015 BKN045 OVC150
     FM281300 36013G20KT P6SM BKN025 OVC040
     FM281800 36013G20KT P6SM BKN040
     FM290000 30008KT P6SM SCT045
     FM290400 27004KT P6SM FEW045 BKN090=



000
FTUS43 KDTX 280900 AAA
TAFDTW
TAF AMD
KDTW 280901Z 2809/2912 32010KT P6SM BKN015 OVC045
      TEMPO 2809/2813 SCT015 BKN045 OVC150
     FM281300 34013G20KT P6SM BKN025 OVC040
     FM281800 34013G20KT P6SM BKN040
     FM290000 30008KT P6SM SCT045
     FM290400 27004KT P6SM FEW045 BKN090=



000
FTUS43 KDTX 280500
TAFMBS
TAF
KMBS 280525Z 2806/2906 34012KT 6SM -SHRA SCT025 BKN035 OVC070
      TEMPO 2806/2808 4SM -SHRA OVC015
     FM280800 34007KT P6SM BKN015 OVC025
     FM281400 34013G20KT P6SM BKN025 OVC040
     FM281800 34013G20KT P6SM BKN040
     FM282300 30008KT P6SM SCT045
     FM290300 27004KT P6SM FEW045 BKN090=



000
FTUS43 KDTX 280500
TAFDET
TAF
KDET 280525Z 2806/2906 32008KT P6SM SCT025 BKN045 OVC090
      TEMPO 2807/2810 4SM -SHRA OVC025
     FM281000 34010KT P6SM SCT015 OVC025
     FM281400 34013G20KT P6SM BKN025 OVC040
     FM281800 34013G20KT P6SM BKN040
     FM290000 30008KT P6SM SCT045
     FM290400 27004KT P6SM FEW045 BKN090=



000
FTUS43 KDTX 280500
TAFFNT
TAF
KFNT 280525Z 2806/2906 32010KT 6SM -SHRA SCT025 BKN040 OVC080
      TEMPO 2806/2808 4SM -SHRA OVC015
     FM280800 34007KT P6SM SCT015 OVC025
     FM281400 34013G20KT P6SM BKN025 OVC040
     FM281800 34013G20KT P6SM BKN040
     FM282300 30008KT P6SM SCT045
     FM290300 27004KT P6SM FEW045 BKN090=



000
FTUS43 KDTX 280500
TAFDTW
TAF
KDTW 280525Z 2806/2912 31008KT P6SM SCT025 BKN045 OVC090
      TEMPO 2807/2810 4SM -SHRA OVC025
     FM281000 34010KT P6SM SCT015 OVC025
     FM281400 34013G20KT P6SM BKN025 OVC040
     FM281800 34013G20KT P6SM BKN040
     FM290000 30008KT P6SM SCT045
     FM290400 27004KT P6SM FEW045 BKN090=



000
FTUS43 KDTX 280200 AAB
TAFDTW
TAF AMD
KDTW 280235Z 2803/2906 36004KT P6SM SCT080 BKN150
      TEMPO 2803/2806 6SM -SHRA BR SCT025 BKN035
     FM280600 35007KT P6SM SCT018 BKN028 OVC035
     FM281400 34013G20KT P6SM BKN028 OVC040
     FM281800 34013G20KT P6SM BKN040
     FM290000 32012KT P6SM SCT040=



000
FTUS43 KDTX 280100 AAA
TAFDET
TAF AMD
KDET 280104Z 2801/2824 35007KT P6SM -SHRA SCT045 BKN090
      TEMPO 2801/2804 5SM SHRA SCT035 OVC045
     FM280600 34008KT P6SM SCT015 OVC025
     FM281400 34013G20KT P6SM BKN025 OVC040
     FM281800 34013G20KT P6SM BKN040=



000
FTUS43 KDTX 280100 AAA
TAFDTW
TAF AMD
KDTW 280103Z 2801/2906 36008KT P6SM SCT050 BKN100
      TEMPO 2801/2804 5SM -SHRA BR SCT035 BKN045
     FM280600 35007KT P6SM SCT015 OVC025
     FM281400 34013G20KT P6SM BKN025 OVC040
     FM281800 34013G20KT P6SM BKN040
     FM290000 32012KT P6SM SCT040=



000
FTUS43 KDTX 272300
TAFFNT
TAF
KFNT 272320Z 2800/2824 01010KT 5SM -TSRA BR SCT035 OVC045CB
      TEMPO 2800/2801 28020G30KT 1SM TSRA OVC020CB
     FM280100 02010KT 5SM -SHRA SCT025 OVC035
     FM280400 35008KT P6SM OVC015
     FM281400 34013G20KT P6SM BKN025 OVC040
     FM281800 34013G20KT P6SM BKN040=



000
FTUS43 KDTX 272300
TAFDTW
TAF
KDTW 272320Z 2800/2906 30008KT 5SM -TSRA BR SCT035 OVC045CB
      TEMPO 2800/2801 28020G30KT 1SM TSRA OVC020CB
     FM280100 32010KT 5SM -SHRA SCT025 OVC035
     FM280500 35008KT P6SM OVC015
     FM281400 34013G20KT P6SM BKN025 OVC040
     FM281800 34013G20KT P6SM BKN040
     FM290000 32012KT P6SM SCT040=



000
FTUS43 KDTX 272300
TAFDET
TAF
KDET 272320Z 2800/2824 30008KT 5SM -TSRA BR SCT035 OVC045CB
      TEMPO 2800/2801 28020G30KT 1SM TSRA OVC020CB
     FM280100 32010KT 5SM -SHRA SCT025 OVC035
     FM280500 35008KT P6SM OVC015
     FM281400 34013G20KT P6SM BKN025 OVC040
     FM281800 34013G20KT P6SM BKN040=



000
FTUS43 KDTX 272300
TAFMBS
TAF
KMBS 272320Z 2800/2824 04012KT P6SM -SHRA SCT035 OVC045
      TEMPO 2800/2801 4SM -TSRA BR BKN020CB OVC030
     FM280100 02010KT 5SM -SHRA SCT025 OVC035
     FM280500 36008KT P6SM OVC015
     FM281400 34013G20KT P6SM BKN025 OVC040
     FM281800 34013G20KT P6SM BKN040=



000
FTUS43 KDTX 272200 AAC
TAFMBS
TAF AMD
KMBS 272201Z 2722/2818 04014KT P6SM -SHRA SCT045 OVC090
      TEMPO 2722/2723 3SM TSRA OVC020CB
     FM280000 01010KT 6SM -SHRA OVC035
     FM280400 36008KT P6SM OVC015
     FM281400 34013G20KT P6SM BKN025 OVC040=



000
FTUS43 KDTX 272100 AAB
TAFDTW
TAF AMD
KDTW 272149Z 2722/2824 VRB05KT 5SM -TSRA SCT025 BKN045CB OVC070
      TEMPO 2722/2724 28020G30KT 1SM TSRA OVC020CB
     FM280100 30010KT 5SM -SHRA OVC035
     FM280500 35008KT P6SM OVC015
     FM281400 34013G20KT P6SM BKN025 OVC040
     FM281800 34013G20KT P6SM BKN040=



000
FTUS43 KDTX 272100 AAA
TAFFNT
TAF AMD
KFNT 272130Z 2722/2818 22010G18KT 6SM -SHRA SCT025 BKN045 OVC100
      TEMPO 2722/2723 30025G35KT 2SM TSRA OVC020CB
     FM280000 32010KT 6SM -SHRA OVC035
     FM280400 36008KT P6SM OVC015
     FM281400 34013G20KT P6SM BKN025 OVC040=



000
FTUS43 KDTX 272100 AAA
TAFDET
TAF AMD
KDET 272123Z 2721/2818 24010KT 4SM -TSRA BR SCT025 OVC035CB
      TEMPO 2721/2722 29025G35KT 1SM TSRA OVC020CB
     FM272300 31010KT 6SM -SHRA OVC035
     FM280700 36008KT P6SM OVC015
     FM281400 34013G20KT P6SM BKN025 OVC040=



000
FTUS43 KDTX 272100 AAB
TAFMBS
TAF AMD
KMBS 272114Z 2721/2818 33014G22KT 5SM -TSRA BR SCT035CB OVC050
      TEMPO 2721/2722 35025G35KT 1SM TSRA OVC020CB
     FM272300 32011KT 6SM -SHRA OVC035
     FM280400 36008KT P6SM OVC015
     FM281400 34013G20KT P6SM BKN025 OVC040=



000
FTUS43 KDTX 272000 AAA
TAFDTW
TAF AMD
KDTW 272059Z 2721/2824 14010G20KT 5SM -TSRA SCT025 BKN045CB OVC070
      TEMPO 2722/2723 28020G30KT 1SM TSRA OVC020CB
     FM272300 30010KT 6SM -SHRA OVC035
     FM280700 35008KT P6SM OVC015
     FM281400 34013G20KT P6SM BKN025 OVC040
     FM281800 34013G20KT P6SM BKN040=



000
FTUS43 KDTX 271900 AAA
TAFMBS
TAF AMD
KMBS 271957Z 2720/2818 VRB05KT P6SM BKN035 OVC045
      TEMPO 2721/2722 1SM TSRA OVC020CB
     FM272200 32010KT 6SM -SHRA OVC035
     FM280400 36008KT P6SM OVC015
     FM281400 34013G20KT P6SM BKN025 OVC040=



000
FTUS43 KDTX 271700
TAFDTW
TAF
KDTW 271723Z 2718/2824 24010KT 6SM -SHRA SCT040 BKN100
      TEMPO 2720/2723 1SM TSRA OVC020CB
     FM272300 32010KT 6SM -SHRA OVC035
     FM280700 36008KT P6SM OVC015
     FM281400 34013G20KT P6SM BKN025 OVC040
     FM281800 34013G20KT P6SM BKN040=



000
FTUS43 KDTX 271700
TAFFNT
TAF
KFNT 271723Z 2718/2818 24010KT 6SM -SHRA BKN040 OVC100
      TEMPO 2719/2722 1SM TSRA OVC020CB
     FM272200 32010KT 6SM -SHRA OVC035
     FM280500 36008KT P6SM OVC015
     FM281400 34013G20KT P6SM BKN025 OVC040=



000
FTUS43 KDTX 271700
TAFMBS
TAF
KMBS 271723Z 2718/2818 24010KT 4SM -SHRA BKN040 OVC100
      TEMPO 2718/2721 1SM TSRA OVC020CB
     FM272100 32010KT 6SM -SHRA OVC035
     FM280400 36008KT P6SM OVC015
     FM281400 34013G20KT P6SM BKN025 OVC040=



000
FTUS43 KDTX 271700
TAFDET
TAF
KDET 271723Z 2718/2818 24010KT 6SM -SHRA SCT040 BKN100
      TEMPO 2720/2723 1SM TSRA OVC020CB
     FM272300 32010KT 6SM -SHRA OVC035
     FM280700 36008KT P6SM OVC015
     FM281400 34013G20KT P6SM BKN025 OVC040=



000
FTUS43 KDTX 271400 AAA
TAFFNT
TAF AMD
KFNT 271445Z 2715/2812 21008KT P6SM SCT025 BKN150
     FM271800 24010KT 4SM -SHRA BKN040 OVC100
      TEMPO 2719/2722 1SM TSRA OVC020CB
     FM272200 32010KT 6SM -SHRA OVC035
     FM280500 36008KT P6SM OVC015=



000
FTUS43 KDTX 271400 AAA
TAFDET
TAF AMD
KDET 271434Z 2715/2812 23008KT P6SM BKN025 BKN150
      TEMPO 2717/2719 SCT025 BKN120
     FM271900 24010KT 4SM -SHRA BKN040 OVC100
      TEMPO 2720/2723 1SM TSRA OVC020CB
     FM272300 32010KT 6SM -SHRA OVC035
     FM280700 36008KT P6SM OVC015=



000
FTUS43 KDTX 271400 AAA
TAFDTW
TAF AMD
KDTW 271433Z 2715/2818 21008KT P6SM SCT025 BKN150
      TEMPO 2715/2717 BKN025
     FM271900 24010KT 4SM -SHRA BKN040 OVC100
      TEMPO 2720/2723 1SM TSRA OVC020CB
     FM272300 32010KT 6SM -SHRA OVC035
     FM280700 36008KT P6SM OVC015
     FM281400 36013G20KT P6SM BKN025 OVC040=



000
FTUS43 KDTX 271400 AAA
TAFMBS
TAF AMD
KMBS 271402Z 2714/2812 21005KT P6SM -SHRA BKN007 OVC012
      TEMPO 2715/2717 SCT008 BKN080
     FM271700 24010KT 4SM -SHRA BKN040 OVC100
      TEMPO 2718/2721 1SM TSRA OVC020CB
     FM272100 32010KT 6SM -SHRA OVC035
     FM280400 36008KT P6SM OVC015=



    US Dept of Commerce
    National Oceanic and Atmospheric Administration
    National Weather Service
    1325 East West Highway
    Silver Spring, MD 20910
    Page Author: NWS Internet Services Team
Disclaimer
Information Quality
Credits
Glossary
Privacy Policy
Freedom of Information Act (FOIA)
About Us
Career Opportunities